Time;durP1;ratioP1;P1;durP2;ratioP2;P2;SDS_P1;SDS_P2;PMS_P1;PMS_P2;Temp;Humidity;BMP_temperature;BMP_pressure;BME280_temperature;BME280_humidity;BME280_pressure;Samples;Min_cycle;Max_cycle;Signal;HPM_P1;HPM_P2
2022/05/16 04:46:48;;;;;;;8.85;3.72;;;;;;;;;;4917172;29;20107;-85
2022/05/16 04:49:14;;;;;;;10.75;4.18;;;;;;;;;;4912729;29;20087;-86
2022/05/16 04:51:40;;;;;;;9.50;3.45;;;;;;;;;;4910349;29;20288;-81
2022/05/16 04:54:08;;;;;;;12.20;3.90;;;;;;;;;;4925146;29;20047;-86
2022/05/16 04:56:36;;;;;;;18.33;4.10;;;;;;;;;;4923892;29;20043;-84
2022/05/16 04:59:02;;;;;;;16.05;4.00;;;;;;;;;;4911257;29;20490;-78
2022/05/16 05:01:28;;;;;;;11.63;3.75;;;;;;;;;;4927139;29;20036;-77
2022/05/16 05:03:54;;;;;;;15.65;3.70;;;;;;;;;;4923350;29;20098;-76
2022/05/16 05:06:20;;;;;;;27.38;4.18;;;;;;;;;;4918135;29;20054;-80
2022/05/16 05:08:46;;;;;;;19.65;3.95;;;;;;;;;;4931526;29;20170;-90
2022/05/16 05:16:45;;;;;;;15.18;3.40;;;;;;;;;;4926797;29;20063;-79
2022/05/16 05:19:11;;;;;;;20.90;3.95;;;;;;;;;;4913781;29;20048;-79
2022/05/16 05:21:37;;;;;;;16.85;3.90;;;;;;;;;;4927620;29;20028;-78
2022/05/16 05:24:04;;;;;;;18.17;3.80;;;;;;;;;;4909798;29;20039;-81
2022/05/16 05:26:30;;;;;;;13.95;3.60;;;;;;;;;;4917696;29;20024;-76
2022/05/16 05:28:56;;;;;;;19.70;4.15;;;;;;;;;;4931155;29;20028;-78
2022/05/16 05:31:25;;;;;;;10.52;3.42;;;;;;;;;;4906161;29;20043;-76
2022/05/16 05:33:51;;;;;;;9.82;3.47;;;;;;;;;;4917062;29;21931;-79
2022/05/16 05:36:17;;;;;;;10.65;4.50;;;;;;;;;;4925144;29;20422;-80
2022/05/16 05:38:43;;;;;;;7.30;3.08;;;;;;;;;;4924685;29;20048;-73
2022/05/16 05:41:10;;;;;;;10.18;3.08;;;;;;;;;;4924197;29;20122;-75
2022/05/16 05:43:37;;;;;;;12.90;3.10;;;;;;;;;;4915810;29;20092;-84
2022/05/16 05:46:04;;;;;;;23.92;6.05;;;;;;;;;;4919956;29;20119;-85
2022/05/16 05:48:30;;;;;;;35.55;9.38;;;;;;;;;;4923318;29;20542;-90
2022/05/16 05:50:56;;;;;;;37.85;7.60;;;;;;;;;;4920434;29;20035;-75
2022/05/16 05:53:22;;;;;;;35.70;6.30;;;;;;;;;;4901579;29;20040;-76
2022/05/16 05:55:54;;;;;;;12.35;4.03;;;;;;;;;;4919464;29;20488;-75
2022/05/16 05:58:20;;;;;;;15.50;4.32;;;;;;;;;;4917144;29;20044;-74
2022/05/16 06:00:48;;;;;;;21.40;5.35;;;;;;;;;;4925002;29;20032;-78
2022/05/16 06:03:14;;;;;;;34.20;5.80;;;;;;;;;;4921960;29;20028;-74
2022/05/16 06:05:44;;;;;;;18.65;4.40;;;;;;;;;;4916790;29;20768;-73
2022/05/16 06:08:11;;;;;;;8.43;3.20;;;;;;;;;;4932416;28;20055;-78
2022/05/16 06:10:37;;;;;;;15.00;4.57;;;;;;;;;;4908187;29;20019;-72
2022/05/16 06:13:03;;;;;;;22.10;5.20;;;;;;;;;;4916966;29;20116;-76
2022/05/16 06:15:29;;;;;;;14.13;5.65;;;;;;;;;;4916820;29;20032;-94
2022/05/16 06:17:55;;;;;;;17.88;4.63;;;;;;;;;;4920809;29;20514;-75
2022/05/16 06:20:21;;;;;;;15.23;4.90;;;;;;;;;;4920006;29;20049;-75
2022/05/16 06:22:47;;;;;;;19.83;5.70;;;;;;;;;;4924152;29;20047;-77
2022/05/16 06:25:34;;;;;;;16.83;4.25;;;;;;;;;;4909892;29;20538;-74
2022/05/16 06:28:01;;;;;;;12.25;4.10;;;;;;;;;;4920790;29;20039;-73
2022/05/16 06:30:27;;;;;;;12.32;3.90;;;;;;;;;;4919927;29;20024;-76
2022/05/16 06:32:53;;;;;;;12.55;3.85;;;;;;;;;;4920410;29;20028;-72
2022/05/16 06:35:19;;;;;;;14.38;3.88;;;;;;;;;;4905399;29;20047;-73
2022/05/16 06:37:45;;;;;;;15.80;4.10;;;;;;;;;;4919335;29;20027;-71
2022/05/16 06:40:13;;;;;;;18.13;3.63;;;;;;;;;;4925626;29;20036;-81
2022/05/16 06:42:39;;;;;;;16.48;3.88;;;;;;;;;;4930511;29;20028;-80
2022/05/16 06:45:07;;;;;;;15.95;4.50;;;;;;;;;;4916789;29;20079;-78
2022/05/16 06:47:33;;;;;;;8.60;3.40;;;;;;;;;;4926437;29;20044;-82
2022/05/16 06:49:59;;;;;;;11.77;3.92;;;;;;;;;;4923009;29;20553;-83
2022/05/16 06:52:25;;;;;;;11.52;3.88;;;;;;;;;;4925296;29;20039;-81
2022/05/16 06:54:52;;;;;;;9.43;3.70;;;;;;;;;;4922263;29;20342;-83
2022/05/16 06:57:19;;;;;;;8.13;3.15;;;;;;;;;;4912660;29;20035;-83
2022/05/16 06:59:45;;;;;;;9.57;3.70;;;;;;;;;;4919753;29;20043;-82
2022/05/16 07:02:11;;;;;;;12.85;3.58;;;;;;;;;;4919728;29;20039;-82
2022/05/16 07:04:39;;;;;;;19.92;4.15;;;;;;;;;;4899498;29;20498;-82
2022/05/16 07:07:06;;;;;;;7.45;3.30;;;;;;;;;;4916758;29;20037;-83
2022/05/16 07:09:32;;;;;;;17.50;3.75;;;;;;;;;;4907338;29;20039;-84
2022/05/16 07:12:00;;;;;;;240.77;23.17;;;;;;;;;;4928923;29;20075;-81
2022/05/16 07:14:26;;;;;;;29.90;5.25;;;;;;;;;;4898459;29;20060;-82
2022/05/16 07:16:53;;;;;;;12.40;3.20;;;;;;;;;;4903449;29;20028;-82
2022/05/16 07:19:19;;;;;;;21.20;4.38;;;;;;;;;;4898982;29;20047;-82
2022/05/16 07:21:47;;;;;;;17.40;5.28;;;;;;;;;;4898931;29;20356;-83
2022/05/16 07:24:13;;;;;;;39.85;10.45;;;;;;;;;;4919210;29;20059;-82
2022/05/16 07:29:24;;;;;;;25.88;5.65;;;;;;;;;;4922157;29;20520;-81
2022/05/16 07:31:51;;;;;;;11.75;4.22;;;;;;;;;;4903253;29;20088;-82
2022/05/16 07:34:17;;;;;;;15.65;5.78;;;;;;;;;;4909425;29;20071;-83
2022/05/16 07:36:44;;;;;;;8.65;3.25;;;;;;;;;;4919979;29;20059;-80
2022/05/16 07:39:10;;;;;;;12.23;3.58;;;;;;;;;;4924930;29;20139;-81
2022/05/16 07:41:38;;;;;;;12.43;3.55;;;;;;;;;;4904655;29;20041;-81
2022/05/16 07:44:04;;;;;;;30.45;5.55;;;;;;;;;;4902569;29;20388;-80
2022/05/16 07:46:30;;;;;;;41.00;6.63;;;;;;;;;;4903960;29;20063;-82
2022/05/16 07:48:56;;;;;;;9.82;3.10;;;;;;;;;;4926876;29;20185;-80
2022/05/16 07:51:22;;;;;;;25.33;3.20;;;;;;;;;;4903520;29;20402;-82
2022/05/16 07:53:48;;;;;;;6.25;2.85;;;;;;;;;;4924458;29;20058;-80
2022/05/16 07:56:14;;;;;;;10.45;3.00;;;;;;;;;;4925020;29;20467;-80
2022/05/16 07:58:40;;;;;;;9.75;3.50;;;;;;;;;;4911201;29;20086;-82
2022/05/16 08:01:06;;;;;;;4.03;2.50;;;;;;;;;;4907831;29;20020;-81
2022/05/16 08:03:32;;;;;;;9.95;3.67;;;;;;;;;;4910939;29;20110;-81
2022/05/16 08:05:59;;;;;;;8.07;2.80;;;;;;;;;;4919325;29;20458;-80
2022/05/16 08:11:10;;;;;;;7.70;2.83;;;;;;;;;;4926292;29;20109;-77
2022/05/16 08:13:37;;;;;;;10.57;2.97;;;;;;;;;;4906949;29;20032;-75
2022/05/16 08:16:03;;;;;;;5.10;2.50;;;;;;;;;;4928680;29;20082;-74
2022/05/16 08:18:29;;;;;;;9.23;2.80;;;;;;;;;;4925156;29;20051;-78
2022/05/16 08:20:55;;;;;;;7.53;2.95;;;;;;;;;;4923826;29;20024;-78
2022/05/16 08:23:26;;;;;;;10.95;2.90;;;;;;;;;;4922705;29;20047;-77
2022/05/16 08:25:53;;;;;;;9.25;3.08;;;;;;;;;;4918629;29;20035;-79
2022/05/16 08:28:19;;;;;;;8.35;2.90;;;;;;;;;;4931279;29;20038;-79
2022/05/16 08:30:45;;;;;;;7.47;2.65;;;;;;;;;;4915629;29;20047;-78
2022/05/16 08:33:12;;;;;;;19.15;4.43;;;;;;;;;;4924111;29;20043;-77
2022/05/16 08:35:38;;;;;;;13.60;4.07;;;;;;;;;;4932479;29;20034;-78
2022/05/16 08:40:54;;;;;;;5.15;2.70;;;;;;;;;;4919868;29;20047;-78
2022/05/16 08:43:39;;;;;;;9.88;3.17;;;;;;;;;;4914612;29;20114;-77
2022/05/16 08:46:10;;;;;;;6.43;2.63;;;;;;;;;;4922684;29;20071;-82
2022/05/16 08:48:37;;;;;;;5.65;3.13;;;;;;;;;;4917006;29;20032;-77
2022/05/16 08:51:15;;;;;;;6.25;2.25;;;;;;;;;;4926591;29;20534;-86
2022/05/16 08:53:47;;;;;;;11.38;4.47;;;;;;;;;;4924180;29;20028;-84
2022/05/16 08:56:17;;;;;;;254.15;19.27;;;;;;;;;;4907266;29;20029;-85
2022/05/16 08:59:16;;;;;;;26.23;4.22;;;;;;;;;;4908330;29;20242;-82
2022/05/16 09:01:50;;;;;;;10.23;3.08;;;;;;;;;;4854258;29;20086;-81
2022/05/16 09:04:19;;;;;;;9.30;3.05;;;;;;;;;;4839384;29;20469;-84
2022/05/16 09:06:50;;;;;;;15.27;3.90;;;;;;;;;;4849683;29;20072;-74
2022/05/16 09:09:21;;;;;;;17.25;3.30;;;;;;;;;;4853203;29;20504;-78
2022/05/16 09:11:54;;;;;;;9.65;2.83;;;;;;;;;;4850480;29;20052;-74
2022/05/16 09:14:37;;;;;;;11.00;3.28;;;;;;;;;;4855575;29;20056;-75
2022/05/16 09:17:09;;;;;;;7.87;3.17;;;;;;;;;;4855164;29;20045;-77
2022/05/16 09:19:48;;;;;;;8.23;2.90;;;;;;;;;;4850920;29;20049;-78
2022/05/16 09:22:21;;;;;;;8.18;2.72;;;;;;;;;;4851387;29;20025;-74
2022/05/16 09:24:58;;;;;;;10.02;2.97;;;;;;;;;;4839208;29;20537;-80
2022/05/16 09:30:14;;;;;;;9.70;3.33;;;;;;;;;;4849651;29;20104;-75
2022/05/16 09:32:42;;;;;;;7.82;3.20;;;;;;;;;;4855159;29;20582;-82
2022/05/16 09:35:23;;;;;;;22.35;4.35;;;;;;;;;;4853227;29;20114;-81
2022/05/16 09:37:51;;;;;;;10.60;3.08;;;;;;;;;;4882707;29;20050;-81
2022/05/16 09:40:21;;;;;;;6.80;3.13;;;;;;;;;;4925026;29;20088;-77
2022/05/16 09:42:47;;;;;;;5.75;2.60;;;;;;;;;;4921428;29;20024;-78
2022/05/16 09:45:22;;;;;;;9.82;3.30;;;;;;;;;;4922909;29;20055;-77
2022/05/16 09:47:48;;;;;;;7.75;3.10;;;;;;;;;;4925724;29;20032;-78
2022/05/16 09:50:28;;;;;;;6.22;2.60;;;;;;;;;;4931642;29;20032;-81
2022/05/16 09:53:05;;;;;;;5.55;2.67;;;;;;;;;;4924514;29;20028;-77
2022/05/16 09:55:33;;;;;;;6.78;2.80;;;;;;;;;;4935129;29;20043;-81
2022/05/16 09:58:11;;;;;;;27.02;4.13;;;;;;;;;;4932727;29;20500;-78
2022/05/16 10:00:41;;;;;;;11.70;3.38;;;;;;;;;;4925185;29;20482;-76
2022/05/16 10:03:16;;;;;;;6.50;3.28;;;;;;;;;;4923803;29;20067;-81
2022/05/16 10:05:51;;;;;;;9.27;3.50;;;;;;;;;;4922327;29;20049;-77
2022/05/16 10:08:25;;;;;;;9.32;3.60;;;;;;;;;;4916790;29;20022;-81
2022/05/16 10:10:51;;;;;;;7.93;3.13;;;;;;;;;;4924272;29;20035;-76
2022/05/16 10:13:18;;;;;;;8.30;2.88;;;;;;;;;;4923888;29;20121;-78
2022/05/16 10:15:46;;;;;;;4.85;2.92;;;;;;;;;;4925302;29;20058;-82
2022/05/16 10:18:17;;;;;;;6.90;3.35;;;;;;;;;;4926429;29;20040;-77
2022/05/16 10:20:46;;;;;;;8.73;3.33;;;;;;;;;;4904293;29;20028;-77
2022/05/16 10:23:23;;;;;;;6.22;2.95;;;;;;;;;;4918616;29;20033;-81
2022/05/16 10:25:51;;;;;;;10.20;3.55;;;;;;;;;;4925894;29;20431;-82
2022/05/16 10:28:25;;;;;;;11.77;3.58;;;;;;;;;;4914995;29;20496;-78
2022/05/16 10:33:38;;;;;;;9.10;3.10;;;;;;;;;;4922945;29;20046;-81
2022/05/16 10:36:09;;;;;;;11.05;3.20;;;;;;;;;;4923856;29;20020;-80
2022/05/16 10:38:43;;;;;;;6.65;3.00;;;;;;;;;;4915952;29;20509;-78
2022/05/16 10:41:14;;;;;;;6.47;3.33;;;;;;;;;;4923006;29;20443;-78
2022/05/16 10:43:46;;;;;;;8.60;3.38;;;;;;;;;;4924198;29;20502;-78
2022/05/16 10:46:18;;;;;;;7.38;3.20;;;;;;;;;;4924595;29;20059;-79
2022/05/16 10:49:00;;;;;;;7.63;3.90;;;;;;;;;;4928655;29;20027;-79
2022/05/16 10:51:36;;;;;;;8.52;3.40;;;;;;;;;;4923890;29;20036;-82
2022/05/16 10:54:02;;;;;;;12.25;3.78;;;;;;;;;;4909067;29;20036;-78
2022/05/16 10:56:35;;;;;;;12.35;3.85;;;;;;;;;;4924366;29;20115;-82
2022/05/16 10:59:19;;;;;;;14.63;3.60;;;;;;;;;;4931848;29;20055;-82
2022/05/16 11:01:52;;;;;;;6.72;3.38;;;;;;;;;;4924055;29;20031;-81
2022/05/16 11:04:18;;;;;;;;;;;;;;;;;;4927891;29;20031;-82
2022/05/16 11:06:54;;;;;;;11.88;3.72;;;;;;;;;;4927608;29;19918;-82
2022/05/16 11:09:39;;;;;;;17.48;3.90;;;;;;;;;;4916533;29;20516;-81
2022/05/16 11:12:05;;;;;;;9.45;3.00;;;;;;;;;;4923546;29;20168;-83
2022/05/16 11:14:42;;;;;;;13.02;3.35;;;;;;;;;;4916363;29;20139;-79
2022/05/16 11:17:11;;;;;;;5.68;3.30;;;;;;;;;;4927383;29;20051;-80
2022/05/16 11:19:43;;;;;;;7.80;3.47;;;;;;;;;;4924983;29;20040;-78
2022/05/16 11:22:13;;;;;;;10.55;3.60;;;;;;;;;;4912904;29;20123;-80
2022/05/16 11:25:01;;;;;;;9.68;3.50;;;;;;;;;;4918127;29;20039;-76
2022/05/16 11:27:30;;;;;;;6.80;3.20;;;;;;;;;;4919365;29;20035;-76
2022/05/16 11:30:18;;;;;;;16.92;5.25;;;;;;;;;;4901319;29;20036;-81
2022/05/16 11:32:44;;;;;;;9.07;3.70;;;;;;;;;;4913044;29;20039;-79
2022/05/16 11:35:14;;;;;;;9.00;3.35;;;;;;;;;;4929978;29;20036;-77
2022/05/16 11:37:46;;;;;;;5.80;3.25;;;;;;;;;;4927825;29;20050;-78
2022/05/16 11:40:22;;;;;;;13.93;3.65;;;;;;;;;;4920723;29;20051;-77
2022/05/16 11:42:59;;;;;;;8.68;3.60;;;;;;;;;;4927334;29;20020;-79
2022/05/16 11:45:25;;;;;;;17.52;4.40;;;;;;;;;;4910942;29;20513;-77
2022/05/16 11:48:10;;;;;;;8.77;3.45;;;;;;;;;;4922571;29;20039;-82
2022/05/16 11:51:03;;;;;;;7.60;3.22;;;;;;;;;;4928424;29;20514;-77
2022/05/16 11:53:35;;;;;;;7.80;3.55;;;;;;;;;;4910196;29;20402;-78
2022/05/16 12:01:36;;;;;;;10.45;3.70;;;;;;;;;;4921118;29;20038;-78
2022/05/16 12:04:11;;;;;;;10.82;3.30;;;;;;;;;;4918237;29;20545;-78
2022/05/16 12:06:38;;;;;;;7.00;3.10;;;;;;;;;;4926674;29;20030;-74
2022/05/16 12:09:25;;;;;;;8.13;3.85;;;;;;;;;;4912948;29;20062;-88
2022/05/16 12:12:04;;;;;;;5.75;3.17;;;;;;;;;;4909835;29;20529;-87
2022/05/16 12:14:35;;;;;;;6.47;2.88;;;;;;;;;;4912732;29;20024;-86
2022/05/16 12:17:06;;;;;;;6.25;2.97;;;;;;;;;;4905605;29;20056;-87
2022/05/16 12:19:32;;;;;;;8.10;3.70;;;;;;;;;;4916852;29;20505;-78
2022/05/16 12:22:04;;;;;;;8.98;2.90;;;;;;;;;;4919672;29;20159;-80
2022/05/16 12:24:30;;;;;;;6.22;3.05;;;;;;;;;;4922361;29;20096;-79
2022/05/16 12:27:08;;;;;;;7.07;3.05;;;;;;;;;;4925603;29;20478;-80
2022/05/16 12:29:42;;;;;;;9.32;3.42;;;;;;;;;;4927267;29;20048;-75
2022/05/16 12:32:08;;;;;;;5.63;2.88;;;;;;;;;;4924394;29;20032;-75
2022/05/16 12:34:38;;;;;;;7.03;2.92;;;;;;;;;;4927148;29;20088;-75
2022/05/16 12:37:13;;;;;;;6.68;3.40;;;;;;;;;;4927958;29;20028;-77
2022/05/16 12:39:39;;;;;;;8.85;3.20;;;;;;;;;;4930158;29;20127;-80
2022/05/16 12:42:11;;;;;;;7.85;3.20;;;;;;;;;;4922331;29;20107;-85
2022/05/16 12:44:38;;;;;;;6.93;3.10;;;;;;;;;;4906765;29;20040;-80
2022/05/16 12:47:22;;;;;;;7.15;3.28;;;;;;;;;;4912591;29;20470;-81
2022/05/16 12:49:50;;;;;;;7.70;3.17;;;;;;;;;;4926968;29;20039;-80
2022/05/16 12:52:35;;;;;;;5.80;3.03;;;;;;;;;;4920893;29;20051;-82
2022/05/16 12:55:01;;;;;;;6.47;3.00;;;;;;;;;;4906131;29;20040;-81
2022/05/16 12:57:46;;;;;;;7.03;3.30;;;;;;;;;;4918040;29;20028;-82
2022/05/16 13:00:18;;;;;;;9.68;3.13;;;;;;;;;;4918643;29;20047;-82
2022/05/16 13:02:53;;;;;;;8.40;3.20;;;;;;;;;;4926046;29;20039;-81
2022/05/16 13:05:39;;;;;;;7.35;3.22;;;;;;;;;;4907698;29;20035;-80
2022/05/16 13:08:08;;;;;;;4.45;3.10;;;;;;;;;;4924294;29;20030;-73
2022/05/16 13:10:50;;;;;;;7.53;3.30;;;;;;;;;;4904510;29;20127;-79
2022/05/16 13:13:35;;;;;;;9.15;3.45;;;;;;;;;;4919298;29;20031;-77
2022/05/16 13:16:11;;;;;;;9.55;3.58;;;;;;;;;;4921506;29;20031;-76
2022/05/16 13:18:43;;;;;;;6.10;3.17;;;;;;;;;;4920419;29;20052;-85
2022/05/16 13:21:13;;;;;;;7.75;3.63;;;;;;;;;;4907143;29;20039;-74
2022/05/16 13:23:39;;;;;;;7.18;3.03;;;;;;;;;;4919958;29;20040;-90
2022/05/16 13:31:39;;;;;;;6.55;3.33;;;;;;;;;;4909451;29;20042;-81
2022/05/16 13:34:05;;;;;;;6.40;3.00;;;;;;;;;;4921456;29;20020;-75
2022/05/16 13:36:32;;;;;;;11.98;4.22;;;;;;;;;;4924816;29;20374;-73
2022/05/16 13:39:00;;;;;;;9.00;3.45;;;;;;;;;;4931357;29;20032;-75
2022/05/16 13:41:27;;;;;;;5.45;3.00;;;;;;;;;;4926320;29;20028;-75
2022/05/16 13:43:54;;;;;;;6.68;3.50;;;;;;;;;;4924743;29;20023;-76
2022/05/16 13:46:20;;;;;;;6.55;3.30;;;;;;;;;;4931619;29;20131;-75
2022/05/16 13:48:57;;;;;;;5.28;3.20;;;;;;;;;;4932608;29;20036;-80
2022/05/16 13:51:23;;;;;;;6.25;2.92;;;;;;;;;;4925187;29;20019;-78
2022/05/16 13:53:49;;;;;;;5.03;3.10;;;;;;;;;;4923669;29;20198;-74
2022/05/16 13:56:15;;;;;;;6.60;3.45;;;;;;;;;;4930113;29;20024;-83
2022/05/16 13:58:41;;;;;;;10.15;3.78;;;;;;;;;;4910667;29;20039;-77
2022/05/16 14:01:12;;;;;;;8.70;3.72;;;;;;;;;;4914967;29;20032;-77
2022/05/16 14:03:38;;;;;;;7.85;3.45;;;;;;;;;;4902408;29;20102;-76
2022/05/16 14:06:05;;;;;;;7.85;3.35;;;;;;;;;;4904014;29;20411;-75
2022/05/16 14:08:31;;;;;;;6.15;2.85;;;;;;;;;;4916406;29;20088;-76
2022/05/16 14:10:57;;;;;;;7.50;3.00;;;;;;;;;;4926051;29;20534;-73
2022/05/16 14:13:25;;;;;;;7.80;3.10;;;;;;;;;;4924104;29;20110;-82
2022/05/16 14:15:53;;;;;;;7.97;3.22;;;;;;;;;;4907642;29;20035;-81
2022/05/16 14:18:19;;;;;;;4.97;2.80;;;;;;;;;;4925549;29;20114;-79
2022/05/16 14:20:49;;;;;;;6.63;3.10;;;;;;;;;;4917801;29;20030;-75
2022/05/16 14:23:21;;;;;;;12.65;3.22;;;;;;;;;;4921568;29;20034;-76
2022/05/16 14:25:48;;;;;;;10.27;3.80;;;;;;;;;;4927324;29;20038;-81
2022/05/16 14:28:29;;;;;;;7.95;3.22;;;;;;;;;;4919886;29;20091;-74
2022/05/16 14:30:57;;;;;;;6.22;3.50;;;;;;;;;;4923948;29;20033;-71
2022/05/16 14:33:31;;;;;;;7.93;3.33;;;;;;;;;;4902728;29;20084;-75
2022/05/16 14:36:04;;;;;;;6.95;3.30;;;;;;;;;;4921074;29;20056;-74
2022/05/16 14:38:38;;;;;;;9.30;3.78;;;;;;;;;;4922844;29;20080;-78
2022/05/16 14:41:06;;;;;;;11.05;3.13;;;;;;;;;;4933622;29;20055;-78
2022/05/16 14:43:35;;;;;;;7.00;3.67;;;;;;;;;;4929002;29;20051;-74
2022/05/16 14:48:53;;;;;;;5.80;3.20;;;;;;;;;;4923365;29;20039;-80
2022/05/16 14:51:24;;;;;;;11.43;4.53;;;;;;;;;;4925754;29;20027;-78
2022/05/16 14:53:51;;;;;;;11.95;3.35;;;;;;;;;;4914911;29;20028;-73
2022/05/16 14:56:18;;;;;;;8.80;2.95;;;;;;;;;;4933019;29;20027;-73
2022/05/16 14:58:44;;;;;;;8.48;2.90;;;;;;;;;;4913938;29;20044;-74
2022/05/16 15:04:04;;;;;;;10.93;3.60;;;;;;;;;;4936925;29;20128;-77
2022/05/16 15:06:36;;;;;;;31.35;26.50;;;;;;;;;;4924481;29;20028;-77
2022/05/16 15:09:03;;;;;;;8.15;5.10;;;;;;;;;;4923606;29;20087;-75
2022/05/16 15:11:31;;;;;;;10.50;3.42;;;;;;;;;;4924590;29;20040;-75
2022/05/16 15:13:58;;;;;;;6.95;3.30;;;;;;;;;;4925494;29;20507;-77
2022/05/16 15:16:24;;;;;;;6.70;3.28;;;;;;;;;;4926860;29;20045;-81
2022/05/16 15:18:52;;;;;;;7.97;3.08;;;;;;;;;;4928896;29;20397;-78
2022/05/16 15:21:19;;;;;;;7.05;3.55;;;;;;;;;;4920058;29;20030;-86
2022/05/16 15:23:45;;;;;;;12.07;3.50;;;;;;;;;;4920421;29;20067;-78
2022/05/16 15:26:12;;;;;;;10.15;4.40;;;;;;;;;;4932112;29;20030;-79
2022/05/16 15:28:38;;;;;;;9.52;3.80;;;;;;;;;;4930665;29;21390;-79
2022/05/16 15:31:05;;;;;;;5.75;3.10;;;;;;;;;;4920068;29;20055;-78
2022/05/16 15:33:32;;;;;;;13.43;3.28;;;;;;;;;;4927445;29;20034;-76
2022/05/16 15:35:58;;;;;;;6.72;3.50;;;;;;;;;;4927530;29;20490;-83
2022/05/16 15:38:25;;;;;;;4.97;3.05;;;;;;;;;;4909698;29;20036;-84
2022/05/16 15:40:52;;;;;;;9.30;3.63;;;;;;;;;;4929671;29;20031;-83
2022/05/16 15:43:18;;;;;;;13.75;3.60;;;;;;;;;;4933146;29;20024;-81
2022/05/16 15:45:45;;;;;;;9.25;3.30;;;;;;;;;;4921150;29;20047;-77
2022/05/16 15:48:12;;;;;;;6.05;3.03;;;;;;;;;;4908767;29;20053;-83
2022/05/16 15:50:39;;;;;;;7.80;3.22;;;;;;;;;;4922295;29;20382;-83
2022/05/16 15:53:06;;;;;;;9.50;3.30;;;;;;;;;;4928628;29;20024;-77
2022/05/16 15:55:32;;;;;;;6.88;3.10;;;;;;;;;;4924746;29;20500;-77
2022/05/16 15:57:58;;;;;;;8.93;3.20;;;;;;;;;;4923072;29;20115;-78
2022/05/16 16:00:26;;;;;;;12.52;3.42;;;;;;;;;;4911930;29;20180;-89
2022/05/16 16:02:54;;;;;;;9.35;3.30;;;;;;;;;;4909604;29;20112;-75
2022/05/16 16:10:52;;;;;;;6.20;3.03;;;;;;;;;;4926929;29;20095;-85
2022/05/16 16:13:23;;;;;;;9.68;3.10;;;;;;;;;;4922925;29;20062;-73
2022/05/16 16:15:49;;;;;;;7.10;3.20;;;;;;;;;;4921455;29;21512;-82
2022/05/16 16:18:17;;;;;;;6.28;3.15;;;;;;;;;;4916172;29;20036;-83
2022/05/16 16:20:43;;;;;;;9.05;3.25;;;;;;;;;;4910912;29;20095;-84
2022/05/16 16:23:10;;;;;;;5.47;3.08;;;;;;;;;;4911599;29;20071;-79
2022/05/16 16:25:38;;;;;;;9.07;3.60;;;;;;;;;;4913790;29;20044;-79
2022/05/16 16:28:06;;;;;;;13.85;3.90;;;;;;;;;;4924645;29;20032;-81
2022/05/16 16:30:33;;;;;;;8.45;3.33;;;;;;;;;;4901245;29;20542;-79
2022/05/16 16:33:00;;;;;;;6.28;2.92;;;;;;;;;;4924222;29;20039;-79
2022/05/16 16:35:26;;;;;;;8.60;3.22;;;;;;;;;;4920876;29;20398;-73
2022/05/16 16:37:52;;;;;;;8.73;3.40;;;;;;;;;;4925675;29;20032;-74
2022/05/16 16:40:19;;;;;;;9.63;3.60;;;;;;;;;;4926120;29;20486;-84
2022/05/16 16:42:45;;;;;;;11.05;4.10;;;;;;;;;;4928707;29;20470;-77
2022/05/16 16:45:13;;;;;;;11.20;4.13;;;;;;;;;;4925466;29;20445;-75
2022/05/16 16:47:42;;;;;;;7.22;3.20;;;;;;;;;;4926471;29;20028;-75
2022/05/16 16:50:10;;;;;;;13.20;3.70;;;;;;;;;;4922070;29;20066;-80
2022/05/16 16:58:06;;;;;;;6.43;3.65;;;;;;;;;;4918566;29;20050;-79
2022/05/16 17:00:33;;;;;;;8.55;3.25;;;;;;;;;;4925690;29;20515;-82
2022/05/16 17:03:00;;;;;;;10.75;3.40;;;;;;;;;;4924135;29;20031;-79
2022/05/16 17:05:28;;;;;;;9.07;3.53;;;;;;;;;;4912546;29;20028;-81
2022/05/16 17:07:56;;;;;;;8.55;3.50;;;;;;;;;;4922755;29;20107;-79
2022/05/16 17:10:24;;;;;;;10.70;3.78;;;;;;;;;;4925472;29;20042;-81
2022/05/16 17:12:52;;;;;;;22.45;5.03;;;;;;;;;;4928144;29;20024;-78
2022/05/16 17:15:19;;;;;;;14.13;3.65;;;;;;;;;;4930880;29;20039;-77
2022/05/16 17:17:45;;;;;;;13.65;4.00;;;;;;;;;;4918627;29;20040;-87
2022/05/16 17:20:12;;;;;;;15.38;4.50;;;;;;;;;;4929017;29;20533;-79
2022/05/16 17:22:39;;;;;;;77.65;8.13;;;;;;;;;;4914043;29;20040;-83
2022/05/16 17:25:05;;;;;;;11.18;3.83;;;;;;;;;;4914475;29;20047;-89
2022/05/16 17:27:31;;;;;;;35.53;4.93;;;;;;;;;;4931007;29;20039;-89
2022/05/16 17:29:58;;;;;;;22.80;4.50;;;;;;;;;;4936887;29;20095;-86
2022/05/16 17:32:24;;;;;;;30.08;5.68;;;;;;;;;;4907750;29;20040;-78
2022/05/16 17:34:50;;;;;;;50.40;6.18;;;;;;;;;;4929299;29;20024;-75
2022/05/16 17:37:16;;;;;;;116.47;10.23;;;;;;;;;;4926579;29;20502;-85
2022/05/16 17:39:43;;;;;;;87.72;9.05;;;;;;;;;;4934873;29;20044;-75
2022/05/16 17:42:10;;;;;;;36.47;5.57;;;;;;;;;;4927013;29;20031;-76
2022/05/16 17:44:36;;;;;;;27.75;4.97;;;;;;;;;;4932401;29;20497;-86
2022/05/16 17:47:02;;;;;;;25.58;4.95;;;;;;;;;;4929154;28;20409;-84
2022/05/16 17:49:29;;;;;;;24.55;4.63;;;;;;;;;;4920742;29;20035;-74
2022/05/16 17:51:55;;;;;;;23.90;5.18;;;;;;;;;;4907632;29;20055;-77
2022/05/16 17:54:23;;;;;;;16.48;4.43;;;;;;;;;;4921215;29;20083;-84
2022/05/16 17:56:49;;;;;;;31.63;5.35;;;;;;;;;;4922752;29;20385;-84
2022/05/16 17:59:16;;;;;;;21.80;6.00;;;;;;;;;;4909181;29;20383;-76
2022/05/16 18:01:43;;;;;;;25.42;5.22;;;;;;;;;;4912458;29;20032;-76
2022/05/16 18:04:10;;;;;;;10.38;4.35;;;;;;;;;;4927959;29;20079;-77
2022/05/16 18:06:37;;;;;;;8.93;4.40;;;;;;;;;;4927080;29;20029;-73
2022/05/16 18:09:03;;;;;;;42.55;5.60;;;;;;;;;;4898660;29;20051;-76
2022/05/16 18:14:15;;;;;;;8.63;4.47;;;;;;;;;;4917134;29;20126;-84
2022/05/16 18:16:41;;;;;;;34.72;5.18;;;;;;;;;;4927181;29;20066;-80
2022/05/16 18:19:07;;;;;;;21.52;5.22;;;;;;;;;;4910147;29;20038;-84
2022/05/16 18:21:34;;;;;;;33.55;11.85;;;;;;;;;;4926600;29;20107;-86
2022/05/16 18:24:00;;;;;;;56.42;16.05;;;;;;;;;;4903099;29;20031;-85
2022/05/16 18:26:27;;;;;;;31.25;15.45;;;;;;;;;;4918785;29;20024;-83
2022/05/16 18:28:54;;;;;;;14.52;4.60;;;;;;;;;;4911913;29;20168;-86
2022/05/16 18:31:20;;;;;;;17.75;4.45;;;;;;;;;;4914153;29;20390;-87
2022/05/16 18:33:46;;;;;;;18.80;4.30;;;;;;;;;;4909952;29;20047;-86
2022/05/16 18:36:13;;;;;;;10.90;3.78;;;;;;;;;;4904451;29;20054;-85
2022/05/16 18:38:40;;;;;;;34.53;6.20;;;;;;;;;;4900487;29;20040;-84
2022/05/16 18:41:08;;;;;;;26.00;4.97;;;;;;;;;;4927676;29;20047;-86
2022/05/16 18:52:05;;;;;;;11.13;4.20;;;;;;;;;;4891267;29;20200;-84
2022/05/16 18:54:31;;;;;;;13.50;4.22;;;;;;;;;;4876800;29;20032;-86
2022/05/16 18:57:00;;;;;;;10.63;4.95;;;;;;;;;;4894032;29;20041;-79
2022/05/16 18:59:26;;;;;;;17.13;4.13;;;;;;;;;;4888206;29;20054;-76
2022/05/16 19:01:53;;;;;;;16.30;4.30;;;;;;;;;;4883227;29;20066;-81
2022/05/16 19:04:20;;;;;;;10.38;3.78;;;;;;;;;;4893000;29;20036;-88
2022/05/16 19:06:46;;;;;;;15.13;4.38;;;;;;;;;;4890886;29;20544;-84
2022/05/16 19:09:12;;;;;;;11.35;4.35;;;;;;;;;;4891602;29;20120;-85
2022/05/16 19:11:43;;;;;;;12.88;4.40;;;;;;;;;;4895103;29;20108;-85
2022/05/16 19:14:09;;;;;;;9.63;4.53;;;;;;;;;;4871660;29;20599;-84
2022/05/16 19:16:36;;;;;;;8.68;4.93;;;;;;;;;;4885629;29;20048;-80
2022/05/16 19:19:04;;;;;;;14.02;5.20;;;;;;;;;;4893292;29;20125;-82
2022/05/16 19:21:35;;;;;;;7.28;4.93;;;;;;;;;;4889019;29;20056;-81
2022/05/16 19:24:01;;;;;;;7.03;5.35;;;;;;;;;;4920157;29;20047;-79
2022/05/16 19:26:27;;;;;;;13.07;6.22;;;;;;;;;;4928202;29;20038;-76
2022/05/16 19:34:22;;;;;;;11.15;4.93;;;;;;;;;;4920756;29;20051;-81
2022/05/16 19:36:48;;;;;;;7.78;4.60;;;;;;;;;;4926532;29;20027;-76
2022/05/16 19:39:15;;;;;;;8.38;4.72;;;;;;;;;;4930782;29;20068;-76
2022/05/16 19:41:44;;;;;;;8.43;4.00;;;;;;;;;;4906173;29;20071;-77
2022/05/16 19:44:11;;;;;;;13.98;4.38;;;;;;;;;;4928601;29;20047;-75
2022/05/16 19:46:37;;;;;;;10.55;4.30;;;;;;;;;;4927875;29;20053;-78
2022/05/16 19:49:04;;;;;;;9.43;3.80;;;;;;;;;;4928478;29;20031;-81
2022/05/16 19:51:31;;;;;;;16.13;4.55;;;;;;;;;;4901692;29;20042;-77
2022/05/16 19:53:58;;;;;;;13.45;4.65;;;;;;;;;;4921962;29;20032;-78
2022/05/16 19:56:25;;;;;;;12.70;4.30;;;;;;;;;;4925859;29;20083;-75
2022/05/16 19:58:52;;;;;;;11.57;4.55;;;;;;;;;;4933963;29;20091;-83
2022/05/16 20:01:19;;;;;;;10.55;4.10;;;;;;;;;;4927316;29;20032;-82
2022/05/16 20:03:45;;;;;;;10.65;4.28;;;;;;;;;;4931889;29;20053;-84
2022/05/16 20:06:12;;;;;;;17.65;4.00;;;;;;;;;;4927009;29;20024;-77
2022/05/16 20:08:38;;;;;;;22.55;4.85;;;;;;;;;;4922180;29;20034;-82
2022/05/16 20:11:05;;;;;;;7.68;3.97;;;;;;;;;;4920579;29;20025;-84
2022/05/16 20:13:31;;;;;;;9.55;4.05;;;;;;;;;;4922577;29;20024;-83
2022/05/16 20:15:57;;;;;;;10.48;4.20;;;;;;;;;;4925434;29;20020;-84
2022/05/16 20:18:23;;;;;;;12.57;4.28;;;;;;;;;;4923818;29;20047;-76
2022/05/16 20:20:50;;;;;;;9.65;4.03;;;;;;;;;;4918259;29;20023;-84
2022/05/16 20:26:02;;;;;;;7.38;3.90;;;;;;;;;;4933231;29;20051;-79
2022/05/16 20:28:28;;;;;;;13.75;4.22;;;;;;;;;;4911200;29;20031;-79
2022/05/16 20:30:55;;;;;;;7.13;3.60;;;;;;;;;;4931539;29;20031;-84
2022/05/16 20:33:23;;;;;;;10.60;4.28;;;;;;;;;;4929788;29;20067;-85
2022/05/16 20:35:50;;;;;;;7.07;3.60;;;;;;;;;;4916744;29;20024;-76
2022/05/16 20:38:17;;;;;;;9.18;4.15;;;;;;;;;;4925256;29;20034;-83